CST,Max TemperatureF,Mean TemperatureF,Min TemperatureF,Max Dew PointF,MeanDew PointF,Min DewpointF,Max Humidity, Mean Humidity, Min Humidity, Max Sea Level PressureIn, Mean Sea Level PressureIn, Min Sea Level PressureIn, Max VisibilityMiles, Mean VisibilityMiles, Min VisibilityMiles, Max Wind SpeedMPH, Mean Wind SpeedMPH, Max Gust SpeedMPH,PrecipitationIn, CloudCover, Events, WindDirDegrees
2011-11-1,78,66,55,52,49,46,72,54,39,30.04,29.97,29.90,10,10,10,24,9,34,0.00,0,,177
2011-11-2,68,55,41,61,51,37,94,76,49,30.19,29.97,29.89,10,9,2,22,11,34,0.13,5,Rain,208
2011-11-3,55,46,37,36,30,25,81,58,31,30.36,30.29,30.24,10,10,10,22,15,30,0.00,1,,323
2011-11-4,62,45,28,37,33,27,100,67,36,30.28,30.18,30.07,10,10,10,8,1,,0.00,0,,157
2011-11-5,62,53,44,45,43,37,87,68,45,30.06,29.94,29.79,10,10,10,20,7,26,0.00,2,,156
2011-11-6,78,68,59,61,54,45,100,68,44,30.00,29.91,29.83,10,10,3,16,10,24,0.00,2,,182
2011-11-7,71,66,60,66,63,59,100,90,78,30.02,29.95,29.83,10,9,4,15,4,28,0.10,7,Rain,151
2011-11-8,60,55,50,61,54,45,100,96,82,30.00,29.87,29.80,10,7,1,22,5,26,0.46,7,Rain,281
2011-11-9,59,48,37,37,35,32,93,64,36,30.38,30.29,30.11,10,10,10,21,12,28,0.00,2,,324
2011-11-10,64,50,35,37,34,32,87,62,32,30.41,30.32,30.17,10,10,10,14,5,17,0.00,0,,259
2011-11-11,69,56,44,36,34,32,66,46,25,30.12,29.99,29.91,10,10,10,20,9,25,0.00,0,,204
2011-11-12,71,61,51,48,37,32,59,42,27,29.85,29.72,29.61,10,10,10,25,14,36,0.00,0,,191
2011-11-13,77,68,60,46,41,37,52,36,26,29.67,29.62,29.58,10,10,10,22,15,29,0.00,0,,210
2011-11-14,73,62,51,50,45,36,88,52,34,29.85,29.75,29.60,10,10,10,18,9,24,0.04,1,Rain,220
2011-11-15,71,58,46,54,48,32,100,68,34,29.85,29.75,29.70,10,10,4,8,2,,0.00,0,,4
2011-11-16,53,45,35,34,26,18,87,47,24,30.39,30.12,29.90,10,10,10,20,10,28,0.00,0,,28
2011-11-17,53,40,28,32,29,23,100,70,30,30.47,30.39,30.23,10,10,7,12,4,17,0.00,0,,194
2011-11-18,62,52,42,45,34,28,67,51,36,30.14,29.98,29.81,10,10,10,25,12,33,0.00,0,,176
2011-11-19,78,66,51,59,53,41,77,63,42,29.95,29.77,29.71,10,10,10,28,16,40,0.00,4,,198
2011-11-20,44,40,35,36,34,32,100,76,66,30.22,30.14,30.01,10,8,2,14,8,17,0.00,8,,5
2011-11-21,42,38,35,39,36,32,93,86,76,30.24,30.12,29.97,10,6,2,14,5,,0.80,8,Rain,10
2011-11-22,51,42,33,45,41,32,100,88,71,30.20,30.08,29.95,10,6,0,18,7,23,0.01,6,Fog,319
2011-11-23,69,51,33,54,40,32,100,79,35,30.30,30.23,30.20,10,6,0,4,0,,0.00,4,Fog,175
2011-11-24,64,53,42,46,44,39,93,75,52,30.26,30.19,30.11,10,10,5,17,5,22,0.00,0,,171
2011-11-25,60,55,50,55,50,45,88,81,68,30.07,29.95,29.83,10,8,3,21,13,28,0.00,7,,176
2011-11-26,60,53,46,59,45,28,100,76,50,30.23,29.95,29.74,10,9,5,26,12,34,0.27,5,Rain,331
2011-11-27,46,39,32,25,22,19,69,54,39,30.33,30.26,30.21,10,10,10,20,11,26,0.00,0,,331
2011-11-28,51,38,24,30,25,21,86,62,30,30.21,30.12,30.03,10,10,10,7,1,,0.00,0,,335
2011-11-29,55,44,33,34,29,23,81,60,36,30.28,30.21,30.10,10,10,10,16,6,23,0.00,0,,343
2011-11-30,59,42,26,30,24,19,93,53,23,30.26,30.13,29.99,10,10,7,12,3,16,0.00,0,,171